地図

経路データ

SID SEASON NUMBER BASIN SUBBASIN NAME ISO_TIME NATURE LAT LON WMO_WIND WMO_PRES WMO_AGENCY TRACK_TYPE DIST2LAND LANDFALL IFLAG USA_AGENCY USA_ATCF_ID USA_LAT USA_LON USA_RECORD USA_STATUS USA_WIND USA_PRES USA_SSHS USA_R34_NE USA_R34_SE USA_R34_SW USA_R34_NW USA_R50_NE USA_R50_SE USA_R50_SW USA_R50_NW USA_R64_NE USA_R64_SE USA_R64_SW USA_R64_NW USA_POCI USA_ROCI USA_RMW USA_EYE TOKYO_LAT TOKYO_LON TOKYO_GRADE TOKYO_WIND TOKYO_PRES TOKYO_R50_DIR TOKYO_R50_LONG TOKYO_R50_SHORT TOKYO_R30_DIR TOKYO_R30_LONG TOKYO_R30_SHORT TOKYO_LAND CMA_LAT CMA_LON CMA_CAT CMA_WIND CMA_PRES HKO_LAT HKO_LON HKO_CAT HKO_WIND HKO_PRES NEWDELHI_LAT NEWDELHI_LON NEWDELHI_GRADE NEWDELHI_WIND NEWDELHI_PRES NEWDELHI_CI NEWDELHI_DP NEWDELHI_POCI REUNION_LAT REUNION_LON REUNION_TYPE REUNION_WIND REUNION_PRES REUNION_TNUM REUNION_CI REUNION_RMW REUNION_R34_NE REUNION_R34_SE REUNION_R34_SW REUNION_R34_NW REUNION_R50_NE REUNION_R50_SE REUNION_R50_SW REUNION_R50_NW REUNION_R64_NE REUNION_R64_SE REUNION_R64_SW REUNION_R64_NW BOM_LAT BOM_LON BOM_TYPE BOM_WIND BOM_PRES BOM_TNUM BOM_CI BOM_RMW BOM_R34_NE BOM_R34_SE BOM_R34_SW BOM_R34_NW BOM_R50_NE BOM_R50_SE BOM_R50_SW BOM_R50_NW BOM_R64_NE BOM_R64_SE BOM_R64_SW BOM_R64_NW BOM_ROCI BOM_POCI BOM_EYE BOM_POS_METHOD BOM_PRES_METHOD NADI_LAT NADI_LON NADI_CAT NADI_WIND NADI_PRES WELLINGTON_LAT WELLINGTON_LON WELLINGTON_WIND WELLINGTON_PRES DS824_LAT DS824_LON DS824_STAGE DS824_WIND DS824_PRES TD9636_LAT TD9636_LON TD9636_STAGE TD9636_WIND TD9636_PRES TD9635_LAT TD9635_LON TD9635_WIND TD9635_PRES TD9635_ROCI NEUMANN_LAT NEUMANN_LON NEUMANN_CLASS NEUMANN_WIND NEUMANN_PRES MLC_LAT MLC_LON MLC_CLASS MLC_WIND MLC_PRES USA_GUST BOM_GUST BOM_GUST_PER REUNION_GUST REUNION_GUST_PER USA_SEAHGT USA_SEARAD_NE USA_SEARAD_SE USA_SEARAD_SW USA_SEARAD_NW STORM_SPEED STORM_DIR
1928046S20045 1928 9 SI MM NOT_NAMED 1928-02-14 18:00:00 NR -19.6000 45.1000 spur-merge 0 0 __________O___ -1 -19.6000 45.1000 7 3 247
1928046S20045 1928 9 SI MM NOT_NAMED 1928-02-14 21:00:00 NR -19.6626 44.9500 spur-merge 0 0 __________P___ -1 -19.6626 44.9500 7 3 243
1928046S20045 1928 9 SI MM NOT_NAMED 1928-02-15 00:00:00 NR -19.7402 44.8100 spur-merge 0 0 __________P___ -1 -19.7402 44.8100 7 3 233
1928046S20045 1928 9 SI MM NOT_NAMED 1928-02-15 03:00:00 NR -19.8476 44.6900 spur-merge 0 0 __________P___ -1 -19.8476 44.6900 7 3 217
1928046S20045 1928 9 SI MM NOT_NAMED 1928-02-15 06:00:00 NR -20.0000 44.6000 spur-merge 0 0 __________O___ -1 -20.0000 44.6000 7 4 200
1928046S20045 1928 9 SI MM NOT_NAMED 1928-02-15 09:00:00 NR -20.2068 44.5479 spur-merge 0 0 __________P___ -1 -20.2068 44.5479 7 5 188
1928046S20045 1928 9 SI MM NOT_NAMED 1928-02-15 12:00:00 NR -20.4549 44.5326 spur-merge 0 0 __________P___ -1 -20.4549 44.5326 7 5 179
1928046S20045 1928 9 SI MM NOT_NAMED 1928-02-15 15:00:00 NR -20.7256 44.5510 spur-merge 0 0 __________P___ -1 -20.7256 44.5510 7 6 173
1928046S20045 1928 9 SI MM NOT_NAMED 1928-02-15 18:00:00 NR -21.0000 44.6000 spur-merge 0 0 __________O___ -1 -21.0000 44.6000 7 5 168
1928046S20045 1928 9 SI MM NOT_NAMED 1928-02-15 21:00:00 NR -21.2460 44.6711 spur-merge 0 0 __________P___ -1 -21.2460 44.6711 7 5 162
1928046S20045 1928 9 SI MM NOT_NAMED 1928-02-16 00:00:00 NR -21.4925 44.7699 spur-merge 0 0 __________P___ -1 -21.4925 44.7699 7 5 158
1928046S20045 1928 9 SI MM NOT_NAMED 1928-02-16 03:00:00 NR -21.7428 44.8837 spur-merge 0 0 __________P___ -1 -21.7428 44.8837 7 6 157
1928046S20045 1928 9 SI MM NOT_NAMED 1928-02-16 06:00:00 NR -22.0000 45.0000 spur-merge 0 0 __________O___ -1 -22.0000 45.0000 7 6 158
1928046S20045 1928 9 SI MM NOT_NAMED 1928-02-16 09:00:00 NR -22.2638 45.1081 spur-merge 0 0 __________P___ -1 -22.2638 45.1081 7 6 160
1928046S20045 1928 9 SI MM NOT_NAMED 1928-02-16 12:00:00 NR -22.5350 45.2150 spur-merge 0 0 __________P___ -1 -22.5350 45.2150 7 6 161
1928046S20045 1928 9 SI MM NOT_NAMED 1928-02-16 15:00:00 NR -22.8138 45.3143 spur-merge 0 0 __________P___ -1 -22.8138 45.3143 7 6 163
1928046S20045 1928 9 SI MM NOT_NAMED 1928-02-16 18:00:00 NR -23.1000 45.4000 spur-merge 0 0 __________O___ -1 -23.1000 45.4000 7 6 166
1928046S20045 1928 9 SI MM NOT_NAMED 1928-02-16 21:00:00 NR -23.3934 45.4675 spur-merge 0 0 __________P___ -1 -23.3934 45.4675 7 6 169
1928046S20045 1928 9 SI MM NOT_NAMED 1928-02-17 00:00:00 NR -23.6925 45.5200 spur-merge 0 0 __________P___ -1 -23.6925 45.5200 7 6 172
1928046S20045 1928 9 SI MM NOT_NAMED 1928-02-17 03:00:00 NR -23.9953 45.5625 spur-merge 0 0 __________P___ -1 -23.9953 45.5625 7 6 173
1928046S20045 1928 9 SI MM NOT_NAMED 1928-02-17 06:00:00 NR -24.3000 45.6000 spur-merge 0 __________O___ -1 -24.3000 45.6000 7 6 174

IBTrACS Databaseについて

本データベースは、米国NOAAが公開する1842年以降の世界の熱帯低気圧のベストトラックデータアーカイブInternational Best Track Archive for Climate Stewardship (IBTrACS)を、ウェブで閲覧しやすい形式に変換したものです。

最終更新日:2021-11-26